Pays
Station

 

Conditions  météo  pour  Mitu  -  Colombie    Colombie

  
26 °C
    
 
 

METAR pour Mitu :

SKMU 161600Z VRB03KT 8000 OVC020 26/23 A3005 RMK HZ

 

Voici le bulletin pour Mitu - Colombie.
 
Le bulletin a été fait il y a 156 heures et 22 minutes, à 16:00 UTC .
Le vent soufflait à la vitesse de 1.5 mètres par seconde de direction variable.
 
La température était de 26 °C, avec un point de rosée à 23 °C.
La température ressentie était de 28 °C.
 
La pression atmosphérique était de 1018 hPa.
L'humidité relative était de 83.6%.
 
Le ciel était nuageux à partir d'une hauteur de 610 mètres
 
La visibilité globale était de 8.0 kilomètres.
 

 
 
 

Pays :   A   B   C   D   E   F   G   H   I   J   K   L   M   N   O   P   Q   R   S   T   U   V   W   Y   Z

 

Partenaires :  Info Météo avec Met'info
Météo Marine avec MeteoMarine.net
Infos Site  |  Infos Légales  |  Crédits  |  Confidentialité
Contactez-nous  |  Ajouter aux favoris
© 2013-2018 METAR - Tous droits réservés